首页
METAR-TAF:

METAR-TAF

机场 :

Fort Nelson, 不列颠哥伦比亚, 加拿大

纬度: 58-50N, 经度: 122-35W, 海拔: 382米

当前天气观测

该预报发布于52分钟前的21:00 UTC
风速8节,风向南转西南,在西之间变化
温度 28°C
湿度 22%
气压 1012 hPa
能見度: 19.3公里
少量云层高于9200英尺
散云层高于25000英尺

METAR: CYYE 262100Z 20008KT 170V270 12SM FEW092 SCT250 28/04 A2987 RMK CU2CI2 FU SLP121 DENSITY ALT 3100FT

时间: 14:52 (21:52 UTC)

预报

该预报发布于3小时和14分钟前的18:38 UTC
预报有效从26日的 19点(UTC)到 27日的 07点(UTC)
风速3节,风向多变
能見度: 10公里
少量云层高于6000英尺
散云层高于25000英尺

TAF: CYYE 261838Z 2619/2707 VRB03KT P6SM FEW060 SCT250 RMK NXT FCST BY 270100Z

超过4000个机场的气象观测和天气预报(METAR&TAF报告)。

可查询的气象台以黄色和红色小点在地图上表示。

将鼠标移到小点上方,可查看气象台名称。

然后点击查看天气观测和预报。

如需切换地图:点击带黑十字的绿色按钮放大地图;点击带横线的绿色按钮缩小地图;或者点击绿色箭头查看邻近地区的地图。


METAR-TAF: